createdAt,value
2023-07-23T00:00:23.873Z,100.00
2023-07-23T00:03:30.205Z,100.00
2023-07-23T00:06:35.767Z,100.00
2023-07-23T00:09:41.769Z,100.00
2023-07-23T00:12:47.852Z,100.00
2023-07-23T00:15:53.752Z,100.00
2023-07-23T00:18:59.605Z,100.00
2023-07-23T00:22:05.758Z,100.00
2023-07-23T00:25:11.706Z,100.00
2023-07-23T00:28:17.905Z,100.00
2023-07-23T00:31:23.983Z,100.00
2023-07-23T00:34:29.732Z,100.00
2023-07-23T00:37:35.368Z,100.00
2023-07-23T00:40:41.343Z,100.00
2023-07-23T00:43:47.604Z,100.00
2023-07-23T00:46:55.680Z,100.00
2023-07-23T00:50:02.086Z,100.00
2023-07-23T00:53:08.995Z,100.00
2023-07-23T00:56:15.581Z,100.00
2023-07-23T00:59:21.527Z,100.00
2023-07-23T01:02:27.789Z,100.00
2023-07-23T01:05:35.092Z,100.00
2023-07-23T01:08:44.528Z,100.00
2023-07-23T01:11:52.390Z,100.00
2023-07-23T01:14:59.571Z,100.00
2023-07-23T01:18:07.086Z,100.00
2023-07-23T01:21:13.621Z,100.00
2023-07-23T01:24:19.608Z,100.00
2023-07-23T01:27:25.846Z,100.00
2023-07-23T01:30:32.215Z,100.00
2023-07-23T01:33:37.606Z,100.00
2023-07-23T01:36:45.190Z,100.00
2023-07-23T01:39:51.815Z,100.00
2023-07-23T01:42:57.916Z,100.00
2023-07-23T01:46:03.380Z,100.00
2023-07-23T01:49:09.118Z,100.00
2023-07-23T01:52:14.984Z,100.00
2023-07-23T01:55:21.468Z,100.00
2023-07-23T01:58:27.315Z,100.00
2023-07-23T02:01:34.046Z,100.00
2023-07-23T02:04:40.483Z,100.00
2023-07-23T02:07:47.248Z,100.00
2023-07-23T02:10:59.719Z,100.00
2023-07-23T02:14:05.700Z,100.00
2023-07-23T02:17:11.908Z,100.00
2023-07-23T02:20:22.589Z,100.00
2023-07-23T02:23:28.577Z,100.00
2023-07-23T02:26:34.946Z,100.00
2023-07-23T02:29:40.880Z,100.00
2023-07-23T02:32:46.856Z,100.00
2023-07-23T02:35:52.804Z,100.00
2023-07-23T02:38:58.588Z,100.00
2023-07-23T02:42:05.017Z,100.00
2023-07-23T02:45:11.122Z,100.00
2023-07-23T02:48:17.725Z,100.00
2023-07-23T02:51:23.718Z,100.00
2023-07-23T02:54:29.940Z,100.00
2023-07-23T02:57:35.412Z,100.00
2023-07-23T03:00:41.808Z,100.00
2023-07-23T03:03:49.194Z,100.00
2023-07-23T03:06:56.144Z,100.00
2023-07-23T03:10:02.880Z,100.00
2023-07-23T03:13:09.005Z,100.00
2023-07-23T03:16:15.786Z,100.00
2023-07-23T03:19:21.270Z,100.00
2023-07-23T03:22:26.940Z,100.00
2023-07-23T03:25:33.255Z,100.00
2023-07-23T03:28:39.525Z,100.00
2023-07-23T03:31:45.694Z,100.00
2023-07-23T03:34:51.445Z,100.00
2023-07-23T03:37:58.089Z,100.00
2023-07-23T03:41:04.303Z,100.00
2023-07-23T03:44:10.061Z,100.00
2023-07-23T03:47:19.079Z,100.00
2023-07-23T03:50:26.142Z,100.00
2023-07-23T03:53:32.169Z,100.00
2023-07-23T03:56:38.001Z,100.00
2023-07-23T03:59:47.042Z,100.00
2023-07-23T04:02:53.144Z,100.00
2023-07-23T04:05:58.893Z,100.00
2023-07-23T04:09:05.055Z,100.00
2023-07-23T04:12:14.509Z,100.00
2023-07-23T04:15:20.644Z,100.00
2023-07-23T04:18:26.049Z,100.00
2023-07-23T04:21:31.837Z,100.00
2023-07-23T04:24:38.043Z,100.00
2023-07-23T04:27:44.580Z,100.00
2023-07-23T04:30:51.419Z,100.00
2023-07-23T04:33:58.157Z,100.00
2023-07-23T04:37:03.838Z,100.00
2023-07-23T04:40:11.189Z,100.00
2023-07-23T04:43:17.475Z,100.00
2023-07-23T04:46:24.331Z,100.00
2023-07-23T04:49:30.067Z,100.00
2023-07-23T04:52:36.232Z,100.00
2023-07-23T04:55:42.231Z,100.00
2023-07-23T04:58:48.218Z,100.00
2023-07-23T05:01:53.821Z,100.00
2023-07-23T05:05:00.022Z,100.00
2023-07-23T05:08:05.933Z,100.00
2023-07-23T05:11:11.888Z,100.00
2023-07-23T05:14:18.000Z,100.00
2023-07-23T05:17:24.039Z,100.00
2023-07-23T05:20:29.661Z,100.00
2023-07-23T05:23:35.627Z,100.00
2023-07-23T05:26:41.339Z,100.00
2023-07-23T05:29:47.145Z,97.57
2023-07-23T05:32:53.001Z,95.61
2023-07-23T05:35:59.268Z,95.88
2023-07-23T05:39:05.042Z,95.23
2023-07-23T05:42:10.759Z,95.82
2023-07-23T05:45:16.194Z,97.29
2023-07-23T05:48:22.969Z,95.85
2023-07-23T05:51:29.117Z,93.87
2023-07-23T05:54:35.258Z,93.90
2023-07-23T05:57:41.606Z,93.67
2023-07-23T06:00:47.961Z,93.91
2023-07-23T06:03:54.521Z,93.23
2023-07-23T06:07:00.189Z,89.57
2023-07-23T06:10:06.289Z,90.10
2023-07-23T06:13:12.422Z,90.58
2023-07-23T06:16:18.211Z,85.72
2023-07-23T06:19:24.563Z,84.49
2023-07-23T06:22:30.624Z,84.25
2023-07-23T06:25:36.365Z,82.80
2023-07-23T06:28:41.929Z,81.96
2023-07-23T06:31:47.986Z,78.78
2023-07-23T06:34:53.731Z,78.84
2023-07-23T06:37:58.816Z,79.74
2023-07-23T06:41:06.350Z,78.66
2023-07-23T06:44:12.490Z,78.50
2023-07-23T06:47:19.705Z,79.47
2023-07-23T06:50:26.227Z,76.33
2023-07-23T06:53:32.402Z,77.11
2023-07-23T06:56:38.542Z,76.70
2023-07-23T06:59:44.862Z,78.54
2023-07-23T07:02:50.916Z,74.75
2023-07-23T07:05:56.990Z,73.74
2023-07-23T07:09:02.795Z,73.00
2023-07-23T07:12:09.415Z,74.86
2023-07-23T07:15:15.712Z,74.58
2023-07-23T07:18:21.966Z,74.42
2023-07-23T07:21:28.649Z,77.65
2023-07-23T11:41:02.419Z,65.97
2023-07-23T11:44:08.618Z,67.37
2023-07-23T11:47:14.100Z,67.18
2023-07-23T11:50:21.538Z,64.26
2023-07-23T11:53:38.540Z,61.92
2023-07-23T11:56:49.409Z,65.73
2023-07-23T11:59:54.953Z,65.23
2023-07-23T12:03:01.199Z,65.72
2023-07-23T12:06:07.306Z,66.39
2023-07-23T12:09:13.473Z,63.67
2023-07-23T12:12:22.944Z,63.45
2023-07-23T12:15:28.698Z,61.68
2023-07-23T12:18:48.754Z,62.25
2023-07-23T12:21:59.376Z,59.39
2023-07-23T12:25:05.264Z,63.13
2023-07-23T12:28:10.988Z,61.27
2023-07-23T12:31:16.729Z,63.94
2023-07-23T12:34:23.280Z,65.03
2023-07-23T12:37:29.439Z,64.49
2023-07-23T12:40:35.143Z,64.08
2023-07-23T12:43:41.451Z,63.59
2023-07-23T12:46:47.309Z,63.45
2023-07-23T12:49:52.952Z,66.42
2023-07-23T12:52:58.891Z,65.52
2023-07-23T12:56:04.626Z,67.65
2023-07-23T12:59:10.126Z,64.06
2023-07-23T13:02:15.935Z,65.99
2023-07-23T13:05:23.800Z,65.59
2023-07-23T13:08:29.670Z,65.64
2023-07-23T13:11:35.581Z,64.39
2023-07-23T13:14:41.462Z,65.32
2023-07-23T13:17:49.282Z,64.28
2023-07-23T13:20:55.079Z,63.97
2023-07-23T13:24:00.299Z,66.20
2023-07-23T13:27:06.249Z,65.10
2023-07-23T13:30:11.632Z,63.35
2023-07-23T13:33:19.043Z,59.36
2023-07-23T13:36:24.308Z,61.67
2023-07-23T13:39:30.184Z,59.48
2023-07-23T13:42:35.794Z,57.97
2023-07-23T13:45:41.758Z,57.51
2023-07-23T13:48:47.031Z,55.85
2023-07-23T13:51:52.952Z,55.67
2023-07-23T13:54:59.039Z,55.64
2023-07-23T13:58:04.290Z,56.46
2023-07-23T14:01:09.720Z,55.04
2023-07-23T14:04:14.998Z,57.02
2023-07-23T14:07:20.372Z,58.28
2023-07-23T14:10:26.011Z,57.23
2023-07-23T14:13:31.729Z,56.70
2023-07-23T14:16:37.336Z,57.56
2023-07-23T14:19:42.635Z,57.60
2023-07-23T14:22:47.854Z,53.83
2023-07-23T14:25:53.333Z,56.10
2023-07-23T14:28:59.085Z,57.45
2023-07-23T14:32:06.599Z,55.33
2023-07-23T14:35:12.101Z,54.75
2023-07-23T14:38:17.653Z,57.35
2023-07-23T14:41:22.829Z,57.48
2023-07-23T14:44:28.352Z,55.13
2023-07-23T14:47:33.761Z,57.47
2023-07-23T14:50:39.683Z,56.59
2023-07-23T14:53:45.445Z,54.65
2023-07-23T14:56:57.388Z,55.20
2023-07-23T15:00:06.554Z,56.22
2023-07-23T15:03:17.883Z,56.27
2023-07-23T15:06:23.486Z,56.37
2023-07-23T15:09:28.500Z,54.67
2023-07-23T15:12:34.342Z,54.45
2023-07-23T15:15:39.819Z,55.19
2023-07-23T15:18:45.717Z,55.34
2023-07-23T15:21:51.858Z,56.21
2023-07-23T15:24:57.617Z,57.54
2023-07-23T15:28:07.447Z,54.63
2023-07-23T15:31:13.340Z,56.11
2023-07-23T15:34:20.714Z,55.99
2023-07-23T15:37:26.555Z,55.50
2023-07-23T15:40:32.166Z,55.83
2023-07-23T15:43:37.435Z,55.77
2023-07-23T15:46:42.883Z,54.76
2023-07-23T15:49:48.426Z,56.76
2023-07-23T15:52:54.152Z,55.29
2023-07-23T15:55:59.879Z,56.99
2023-07-23T15:59:05.900Z,55.71
2023-07-23T16:02:11.039Z,55.17
2023-07-23T16:05:16.816Z,55.28
2023-07-23T16:08:22.255Z,55.24
2023-07-23T16:11:28.324Z,55.55
2023-07-23T16:14:34.220Z,55.43
2023-07-23T16:17:41.381Z,56.35
2023-07-23T16:20:47.468Z,56.38
2023-07-23T16:23:52.737Z,54.63
2023-07-23T16:26:58.107Z,55.02
2023-07-23T16:30:03.720Z,56.27
2023-07-23T16:33:10.399Z,55.20
2023-07-23T16:36:17.224Z,55.91
2023-07-23T16:39:26.611Z,55.24
2023-07-23T16:42:32.392Z,56.05
2023-07-23T16:45:38.292Z,54.44
2023-07-23T16:48:43.895Z,54.16
2023-07-23T16:51:49.917Z,55.74
2023-07-23T16:54:56.123Z,55.95
2023-07-23T16:58:01.562Z,56.76
2023-07-23T17:01:07.283Z,54.68
2023-07-23T17:04:12.535Z,54.05
2023-07-23T17:07:18.030Z,57.30
2023-07-23T17:10:24.313Z,56.62
2023-07-23T17:13:30.657Z,58.13
2023-07-23T17:16:37.666Z,55.42
2023-07-23T17:19:44.647Z,56.39
2023-07-23T17:22:50.571Z,57.50
2023-07-23T17:25:55.922Z,58.20
2023-07-23T17:29:01.862Z,59.59
2023-07-23T17:32:08.115Z,59.91
2023-07-23T17:35:13.899Z,59.29
2023-07-23T17:38:19.616Z,61.73
2023-07-23T17:41:25.540Z,62.65
2023-07-23T17:44:31.841Z,62.46
2023-07-23T17:47:38.005Z,60.30
2023-07-23T17:50:44.082Z,63.29
2023-07-23T17:53:49.652Z,64.37
2023-07-23T17:56:55.003Z,64.23
2023-07-23T18:00:00.137Z,63.68
2023-07-23T18:03:05.652Z,61.70
2023-07-23T18:06:11.350Z,65.08
2023-07-23T18:09:17.725Z,66.37
2023-07-23T18:12:23.423Z,66.81
2023-07-23T18:15:29.344Z,67.80
2023-07-23T18:18:35.255Z,70.32
2023-07-23T18:21:41.071Z,73.78
2023-07-23T18:24:47.101Z,78.03
2023-07-23T18:27:53.104Z,80.67
2023-07-23T18:31:00.028Z,78.51
2023-07-23T18:34:07.095Z,81.53
2023-07-23T18:37:13.091Z,85.78
2023-07-23T18:40:18.579Z,85.33
2023-07-23T18:43:24.516Z,86.55
2023-07-23T18:46:30.898Z,88.19
2023-07-23T18:49:37.147Z,91.74
2023-07-23T18:52:42.697Z,90.96
2023-07-23T18:55:48.329Z,90.16
2023-07-23T18:58:55.500Z,90.78
2023-07-23T19:02:00.515Z,90.17
2023-07-23T19:05:06.457Z,90.56
2023-07-23T19:08:12.527Z,94.75
2023-07-23T19:11:18.661Z,94.80
2023-07-23T19:14:24.948Z,97.32
2023-07-23T19:17:31.264Z,100.00
2023-07-23T19:20:37.196Z,100.00
2023-07-23T19:23:43.834Z,100.00
2023-07-23T19:26:49.849Z,100.00
2023-07-23T19:29:54.994Z,100.00
2023-07-23T19:33:00.631Z,100.00
2023-07-23T19:36:06.043Z,100.00
2023-07-23T19:39:11.999Z,100.00
2023-07-23T19:42:18.532Z,100.00
2023-07-23T19:45:24.515Z,100.00
2023-07-23T19:48:30.562Z,100.00
2023-07-23T19:51:36.200Z,100.00
2023-07-23T19:54:42.434Z,100.00
2023-07-23T19:57:48.411Z,100.00
2023-07-23T20:00:54.289Z,100.00
2023-07-23T20:03:59.931Z,100.00
2023-07-23T20:07:07.068Z,100.00
2023-07-23T20:10:15.057Z,100.00
2023-07-23T20:13:20.970Z,100.00
2023-07-23T20:16:26.768Z,100.00
2023-07-23T20:19:32.461Z,100.00
2023-07-23T20:22:39.388Z,100.00
2023-07-23T20:25:55.183Z,100.00
2023-07-23T20:29:00.742Z,99.67
2023-07-23T20:32:07.182Z,100.00
2023-07-23T20:35:13.769Z,100.00
2023-07-23T20:38:19.465Z,100.00
2023-07-23T20:41:25.566Z,100.00
2023-07-23T20:44:31.409Z,100.00
2023-07-23T20:47:37.486Z,100.00
2023-07-23T20:50:43.467Z,100.00
2023-07-23T20:53:49.972Z,100.00
2023-07-23T20:56:55.934Z,100.00
2023-07-23T21:00:01.516Z,100.00
2023-07-23T21:03:07.380Z,100.00
2023-07-23T21:06:13.334Z,100.00
2023-07-23T21:09:19.282Z,100.00
2023-07-23T21:12:24.802Z,100.00
2023-07-23T21:15:32.830Z,100.00
2023-07-23T21:18:38.948Z,100.00
2023-07-23T21:21:45.046Z,100.00
2023-07-23T21:24:51.169Z,100.00
2023-07-23T21:27:56.892Z,100.00
2023-07-23T21:31:02.761Z,97.73
2023-07-23T21:34:08.809Z,98.74
2023-07-23T21:37:14.486Z,100.00
2023-07-23T21:40:20.348Z,98.14
2023-07-23T21:43:26.068Z,98.91
2023-07-23T21:46:32.211Z,100.00
2023-07-23T21:49:38.128Z,100.00
2023-07-23T21:52:44.396Z,100.00
2023-07-23T21:55:50.047Z,100.00
2023-07-23T21:58:56.151Z,100.00
2023-07-23T22:02:02.135Z,100.00
2023-07-23T22:05:08.414Z,100.00
2023-07-23T22:08:15.409Z,100.00
2023-07-23T22:11:21.241Z,100.00
2023-07-23T22:14:28.935Z,100.00
2023-07-23T22:17:34.710Z,100.00
2023-07-23T22:20:40.462Z,100.00
2023-07-23T22:23:45.936Z,100.00
2023-07-23T22:26:51.855Z,100.00
2023-07-23T22:29:57.896Z,100.00
2023-07-23T22:33:03.999Z,100.00
2023-07-23T22:36:09.915Z,100.00
2023-07-23T22:39:15.617Z,100.00
2023-07-23T22:42:21.432Z,100.00
2023-07-23T22:45:27.135Z,100.00
2023-07-23T22:48:34.946Z,100.00
2023-07-23T22:51:40.905Z,100.00
2023-07-23T22:54:46.965Z,100.00
2023-07-23T22:57:52.669Z,100.00
2023-07-23T23:01:03.292Z,100.00
2023-07-23T23:04:09.096Z,100.00
2023-07-23T23:07:15.081Z,100.00
2023-07-23T23:10:21.021Z,100.00
2023-07-23T23:13:26.759Z,100.00
2023-07-23T23:16:32.913Z,100.00
2023-07-23T23:19:38.803Z,100.00
2023-07-23T23:22:44.225Z,100.00
2023-07-23T23:25:51.206Z,100.00
2023-07-23T23:28:56.835Z,100.00
2023-07-23T23:32:02.858Z,100.00
2023-07-23T23:35:09.103Z,100.00
2023-07-23T23:38:15.063Z,100.00
2023-07-23T23:41:20.744Z,100.00
2023-07-23T23:44:26.709Z,100.00
2023-07-23T23:47:32.600Z,100.00
2023-07-23T23:50:39.121Z,100.00
2023-07-23T23:53:44.677Z,100.00
2023-07-23T23:57:01.120Z,100.00
